Time;durP1;ratioP1;P1;durP2;ratioP2;P2;SDS_P1;SDS_P2;PMS_P1;PMS_P2;Temp;Humidity;BMP_temperature;BMP_pressure;BME280_temperature;BME280_humidity;BME280_pressure;Samples;Min_cycle;Max_cycle;Signal;HPM_P1;HPM_P2
2022/07/25 00:02:02;;;;;;;13.30;9.35;;;;;;;;;;4971941;28;20031;-75
2022/07/25 00:04:27;;;;;;;11.55;9.10;;;;;;;;;;4971934;28;20018;-75
2022/07/25 00:06:53;;;;;;;19.80;8.75;;;;;;;;;;4971837;28;20030;-75
2022/07/25 00:09:18;;;;;;;10.63;8.50;;;;;;;;;;4970486;28;20041;-75
2022/07/25 00:11:44;;;;;;;10.70;8.57;;;;;;;;;;4971856;28;20030;-74
2022/07/25 00:14:09;;;;;;;12.77;9.30;;;;;;;;;;4971935;28;20022;-75
2022/07/25 00:16:35;;;;;;;14.90;9.35;;;;;;;;;;4970268;28;20470;-75
2022/07/25 00:19:00;;;;;;;16.17;10.30;;;;;;;;;;4971137;28;20491;-75
2022/07/25 00:21:26;;;;;;;15.13;9.82;;;;;;;;;;4972135;28;20030;-80
2022/07/25 00:23:51;;;;;;;14.07;8.93;;;;;;;;;;4972370;28;20026;-79
2022/07/25 00:26:17;;;;;;;11.27;9.68;;;;;;;;;;4972928;28;20026;-80
2022/07/25 00:28:43;;;;;;;14.77;8.27;;;;;;;;;;4973384;28;20026;-79
2022/07/25 00:31:08;;;;;;;15.52;10.90;;;;;;;;;;4972232;28;20033;-80
2022/07/25 00:33:34;;;;;;;16.65;12.38;;;;;;;;;;4972535;28;20057;-78
2022/07/25 00:35:59;;;;;;;16.13;11.85;;;;;;;;;;4972608;28;20050;-80
2022/07/25 00:38:25;;;;;;;14.32;9.75;;;;;;;;;;4974255;28;20118;-80
2022/07/25 00:40:50;;;;;;;15.27;9.70;;;;;;;;;;4973771;28;20467;-79
2022/07/25 00:43:16;;;;;;;14.80;9.25;;;;;;;;;;4988100;28;20027;-79
2022/07/25 00:45:41;;;;;;;12.52;8.85;;;;;;;;;;4973567;28;20038;-80
2022/07/25 00:48:07;;;;;;;13.90;10.02;;;;;;;;;;4972361;28;20033;-79
2022/07/25 00:50:34;;;;;;;15.30;9.98;;;;;;;;;;4972161;28;20109;-80
2022/07/25 00:52:59;;;;;;;13.70;9.23;;;;;;;;;;4973825;28;20077;-80
2022/07/25 00:55:25;;;;;;;13.40;8.35;;;;;;;;;;4974421;28;20038;-78
2022/07/25 00:57:51;;;;;;;10.55;8.80;;;;;;;;;;4971996;28;20054;-80
2022/07/25 01:00:17;;;;;;;10.75;9.00;;;;;;;;;;4971841;28;20026;-80
2022/07/25 01:02:43;;;;;;;10.85;8.85;;;;;;;;;;4973081;28;20037;-78
2022/07/25 01:05:10;;;;;;;14.00;9.70;;;;;;;;;;4971712;28;20429;-80
2022/07/25 01:07:37;;;;;;;11.27;9.02;;;;;;;;;;4971557;28;20026;-78
2022/07/25 01:10:03;;;;;;;14.50;9.40;;;;;;;;;;4972303;28;20027;-80
2022/07/25 01:12:28;;;;;;;19.95;9.27;;;;;;;;;;4973093;28;20046;-79
2022/07/25 01:14:54;;;;;;;12.48;9.60;;;;;;;;;;4971797;28;20026;-80
2022/07/25 01:17:20;;;;;;;14.13;8.63;;;;;;;;;;4972586;28;20050;-80
2022/07/25 01:19:46;;;;;;;13.73;9.50;;;;;;;;;;4972851;28;20479;-80
2022/07/25 01:22:11;;;;;;;14.77;9.32;;;;;;;;;;4975526;28;20025;-80
2022/07/25 01:24:38;;;;;;;13.40;8.88;;;;;;;;;;4976647;28;20037;-80
2022/07/25 01:27:03;;;;;;;14.73;9.32;;;;;;;;;;4976272;28;20475;-80
2022/07/25 01:29:29;;;;;;;11.45;9.20;;;;;;;;;;4975415;28;20033;-80
2022/07/25 01:31:54;;;;;;;33.17;30.17;;;;;;;;;;4977203;28;20431;-80
2022/07/25 01:34:20;;;;;;;12.63;10.23;;;;;;;;;;4976936;28;20508;-80
2022/07/25 01:36:46;;;;;;;13.18;9.23;;;;;;;;;;4974725;28;20027;-80
2022/07/25 01:39:12;;;;;;;12.45;9.57;;;;;;;;;;4976122;28;20415;-80
2022/07/25 01:41:37;;;;;;;9.65;8.65;;;;;;;;;;4976296;28;20058;-80
2022/07/25 01:44:03;;;;;;;13.70;9.55;;;;;;;;;;4974968;28;20023;-80
2022/07/25 01:46:29;;;;;;;16.02;10.15;;;;;;;;;;4976037;28;20047;-80
2022/07/25 01:48:54;;;;;;;12.00;9.63;;;;;;;;;;4975874;28;20050;-81
2022/07/25 01:51:20;;;;;;;12.57;9.50;;;;;;;;;;4975178;28;20118;-80
2022/07/25 01:53:45;;;;;;;12.50;9.35;;;;;;;;;;4976243;28;20026;-80
2022/07/25 01:56:11;;;;;;;13.27;10.05;;;;;;;;;;4974887;28;20041;-80
2022/07/25 01:58:37;;;;;;;12.77;9.68;;;;;;;;;;4975669;28;20026;-81
2022/07/25 02:01:03;;;;;;;18.30;9.85;;;;;;;;;;4975427;28;20034;-78
2022/07/25 02:03:31;;;;;;;17.02;10.00;;;;;;;;;;4974835;28;20030;-80
2022/07/25 02:06:05;;;;;;;15.68;9.35;;;;;;;;;;4975882;28;20022;-81
2022/07/25 02:08:31;;;;;;;13.23;9.65;;;;;;;;;;4975970;28;20019;-80
2022/07/25 02:10:57;;;;;;;15.98;9.32;;;;;;;;;;4976407;28;20114;-81
2022/07/25 02:13:23;;;;;;;12.95;9.68;;;;;;;;;;4976027;28;20026;-80
2022/07/25 02:15:50;;;;;;;12.23;9.13;;;;;;;;;;4974762;28;20027;-81
2022/07/25 02:18:15;;;;;;;14.68;9.10;;;;;;;;;;4975470;28;20475;-80
2022/07/25 02:20:41;;;;;;;15.38;9.40;;;;;;;;;;4975831;28;20034;-81
2022/07/25 02:23:07;;;;;;;13.15;9.80;;;;;;;;;;4975440;28;20025;-80
2022/07/25 02:25:33;;;;;;;16.08;9.82;;;;;;;;;;4975534;28;20027;-81
2022/07/25 02:27:59;;;;;;;16.38;9.27;;;;;;;;;;4975206;28;20058;-80
2022/07/25 02:30:25;;;;;;;11.95;9.32;;;;;;;;;;4975074;28;20529;-81
2022/07/25 02:32:50;;;;;;;12.88;9.57;;;;;;;;;;4974314;28;20086;-80
2022/07/25 02:35:16;;;;;;;13.93;9.85;;;;;;;;;;4974325;28;20033;-81
2022/07/25 02:37:41;;;;;;;14.95;9.40;;;;;;;;;;4973763;28;20027;-80
2022/07/25 02:40:08;;;;;;;13.95;10.18;;;;;;;;;;4973660;28;20023;-81
2022/07/25 02:42:33;;;;;;;12.48;9.32;;;;;;;;;;4975001;28;20069;-78
2022/07/25 02:44:58;;;;;;;13.63;9.65;;;;;;;;;;4973995;28;20046;-81
2022/07/25 02:47:24;;;;;;;16.95;10.07;;;;;;;;;;4975485;28;20034;-80
2022/07/25 02:49:49;;;;;;;19.48;9.80;;;;;;;;;;4974041;28;20042;-80
2022/07/25 02:52:15;;;;;;;12.07;9.63;;;;;;;;;;4974455;28;20129;-81
2022/07/25 02:54:40;;;;;;;15.38;10.75;;;;;;;;;;4975242;28;20026;-81
2022/07/25 02:57:06;;;;;;;14.80;9.50;;;;;;;;;;4976395;28;20054;-81
2022/07/25 02:59:31;;;;;;;16.48;10.38;;;;;;;;;;4978437;28;20386;-80
2022/07/25 03:01:57;;;;;;;15.00;9.70;;;;;;;;;;4974945;28;20094;-81
2022/07/25 03:04:22;;;;;;;14.98;10.88;;;;;;;;;;4973675;28;20035;-80
2022/07/25 03:06:48;;;;;;;13.73;9.85;;;;;;;;;;4974371;28;20103;-81
2022/07/25 03:09:13;;;;;;;26.67;13.32;;;;;;;;;;4974313;28;20121;-81
2022/07/25 03:11:38;;;;;;;30.90;10.15;;;;;;;;;;4990939;28;20027;-81
2022/07/25 03:14:06;;;;;;;13.68;9.85;;;;;;;;;;4973521;28;20064;-81
2022/07/25 03:16:31;;;;;;;22.80;11.35;;;;;;;;;;4972553;28;20483;-78
2022/07/25 03:18:57;;;;;;;13.18;9.50;;;;;;;;;;4974538;28;20038;-80
2022/07/25 03:21:22;;;;;;;19.10;10.68;;;;;;;;;;4974095;28;20030;-80
2022/07/25 03:23:49;;;;;;;17.80;10.02;;;;;;;;;;4974244;28;20113;-79
2022/07/25 03:26:15;;;;;;;21.58;11.20;;;;;;;;;;4973966;28;20054;-80
2022/07/25 03:28:41;;;;;;;23.55;11.85;;;;;;;;;;4973985;28;20046;-80
2022/07/25 03:31:07;;;;;;;14.20;10.80;;;;;;;;;;4974115;28;20485;-81
2022/07/25 03:33:33;;;;;;;20.27;11.35;;;;;;;;;;4974284;28;20041;-81
2022/07/25 03:35:59;;;;;;;15.55;11.30;;;;;;;;;;4974106;28;20121;-80
2022/07/25 03:38:24;;;;;;;20.52;11.40;;;;;;;;;;4989027;28;20331;-81
2022/07/25 03:40:50;;;;;;;16.73;11.15;;;;;;;;;;4974373;28;20094;-81
2022/07/25 03:43:15;;;;;;;18.80;11.30;;;;;;;;;;4972940;28;20034;-81
2022/07/25 03:45:41;;;;;;;14.82;9.73;;;;;;;;;;4990059;28;20470;-81
2022/07/25 03:48:07;;;;;;;14.77;10.13;;;;;;;;;;4974444;28;20074;-79
2022/07/25 03:50:32;;;;;;;23.23;12.00;;;;;;;;;;4974008;28;20057;-81
2022/07/25 03:52:58;;;;;;;17.90;11.35;;;;;;;;;;4973012;28;20035;-82
2022/07/25 03:55:23;;;;;;;19.80;11.65;;;;;;;;;;4972520;28;20049;-79
2022/07/25 03:57:49;;;;;;;16.60;10.90;;;;;;;;;;4973987;28;20031;-78
2022/07/25 04:00:14;;;;;;;21.13;12.15;;;;;;;;;;4973385;28;20018;-81
2022/07/25 04:02:40;;;;;;;16.60;11.63;;;;;;;;;;4974552;28;20115;-79
2022/07/25 04:05:07;;;;;;;18.75;11.82;;;;;;;;;;4973049;28;20033;-80
2022/07/25 04:07:33;;;;;;;25.55;12.63;;;;;;;;;;4972451;28;20027;-82
2022/07/25 04:09:58;;;;;;;17.00;12.35;;;;;;;;;;4972351;28;20030;-80
2022/07/25 04:12:24;;;;;;;17.77;11.68;;;;;;;;;;4972627;28;20076;-79
2022/07/25 04:14:49;;;;;;;15.98;11.07;;;;;;;;;;4973134;28;20062;-80
2022/07/25 04:17:15;;;;;;;29.63;13.75;;;;;;;;;;4971772;28;20038;-81
2022/07/25 04:19:41;;;;;;;17.08;11.43;;;;;;;;;;4974136;28;20490;-80
2022/07/25 04:22:06;;;;;;;20.65;12.98;;;;;;;;;;4974174;28;20034;-80
2022/07/25 04:24:32;;;;;;;23.15;11.63;;;;;;;;;;4973754;28;20113;-80
2022/07/25 04:26:58;;;;;;;15.80;10.68;;;;;;;;;;4973061;28;20073;-80
2022/07/25 04:29:23;;;;;;;15.93;10.98;;;;;;;;;;4972882;28;20030;-80
2022/07/25 04:31:49;;;;;;;16.52;11.20;;;;;;;;;;4973488;28;20034;-80
2022/07/25 04:34:14;;;;;;;16.98;10.73;;;;;;;;;;4971950;28;20034;-81
2022/07/25 04:36:39;;;;;;;18.10;10.43;;;;;;;;;;4973674;28;20109;-81
2022/07/25 04:39:05;;;;;;;17.02;10.43;;;;;;;;;;4972935;28;20391;-78
2022/07/25 04:41:30;;;;;;;19.05;10.52;;;;;;;;;;4971228;28;20669;-80
2022/07/25 04:43:56;;;;;;;16.50;11.15;;;;;;;;;;4971328;28;20031;-80
2022/07/25 04:46:22;;;;;;;19.35;13.25;;;;;;;;;;4971634;28;20026;-81
2022/07/25 04:48:48;;;;;;;17.67;10.27;;;;;;;;;;4973065;28;20065;-80
2022/07/25 04:51:15;;;;;;;14.50;9.98;;;;;;;;;;4971248;28;20011;-80
2022/07/25 04:53:41;;;;;;;21.38;11.02;;;;;;;;;;4974021;28;20022;-80
2022/07/25 04:56:07;;;;;;;17.23;10.20;;;;;;;;;;4976092;28;20141;-79
2022/07/25 04:58:34;;;;;;;17.33;10.23;;;;;;;;;;4974883;28;20058;-80
2022/07/25 05:00:59;;;;;;;20.52;10.48;;;;;;;;;;4976529;28;20027;-80
2022/07/25 05:03:25;;;;;;;22.65;11.60;;;;;;;;;;4975723;28;20029;-79
2022/07/25 05:05:51;;;;;;;17.17;10.27;;;;;;;;;;4976607;28;20093;-80
2022/07/25 05:08:16;;;;;;;25.90;10.93;;;;;;;;;;4975375;28;20027;-79
2022/07/25 05:10:42;;;;;;;20.88;11.27;;;;;;;;;;4975999;28;20228;-79
2022/07/25 05:13:08;;;;;;;19.27;10.77;;;;;;;;;;4976564;28;20110;-78
2022/07/25 05:15:33;;;;;;;20.17;10.35;;;;;;;;;;4974866;28;20129;-80
2022/07/25 05:17:59;;;;;;;19.33;11.20;;;;;;;;;;4976002;28;20066;-80
2022/07/25 05:20:25;;;;;;;17.40;9.88;;;;;;;;;;4976135;28;20368;-80
2022/07/25 05:22:50;;;;;;;11.10;8.93;;;;;;;;;;4973596;28;20399;-77
2022/07/25 05:25:16;;;;;;;15.70;9.85;;;;;;;;;;4974908;28;20390;-79
2022/07/25 05:27:42;;;;;;;21.70;10.93;;;;;;;;;;4975537;28;20461;-79
2022/07/25 05:30:09;;;;;;;17.88;8.93;;;;;;;;;;4969003;28;20361;-79
2022/07/25 05:32:36;;;;;;;23.58;10.30;;;;;;;;;;4973541;28;20030;-80
2022/07/25 05:35:03;;;;;;;23.65;10.65;;;;;;;;;;4973219;28;20501;-80
2022/07/25 05:37:29;;;;;;;29.48;11.05;;;;;;;;;;4969824;28;20026;-80
2022/07/25 05:39:54;;;;;;;14.23;9.65;;;;;;;;;;4971405;28;20387;-80
2022/07/25 05:42:20;;;;;;;18.85;10.18;;;;;;;;;;4964837;28;20026;-80
2022/07/25 05:44:45;;;;;;;31.23;9.95;;;;;;;;;;4972014;28;20410;-81
2022/07/25 05:47:11;;;;;;;19.90;9.88;;;;;;;;;;4975979;28;20427;-80
2022/07/25 05:49:37;;;;;;;17.38;9.95;;;;;;;;;;4975317;28;20031;-80
2022/07/25 05:52:03;;;;;;;17.40;9.98;;;;;;;;;;4966498;28;20047;-82
2022/07/25 05:54:29;;;;;;;21.50;10.30;;;;;;;;;;4989116;28;20031;-80
2022/07/25 05:56:54;;;;;;;14.63;9.45;;;;;;;;;;4975117;28;20034;-80
2022/07/25 05:59:20;;;;;;;18.98;10.95;;;;;;;;;;4974924;28;20043;-81
2022/07/25 06:01:45;;;;;;;25.17;9.70;;;;;;;;;;4974433;28;20046;-80
2022/07/25 06:04:11;;;;;;;18.85;9.40;;;;;;;;;;4962540;28;20030;-81
2022/07/25 06:06:36;;;;;;;21.90;10.48;;;;;;;;;;4964461;28;20110;-82
2022/07/25 06:09:02;;;;;;;19.63;9.77;;;;;;;;;;4974714;28;20062;-80
2022/07/25 06:11:29;;;;;;;22.30;10.90;;;;;;;;;;4979529;28;20377;-80
2022/07/25 06:13:55;;;;;;;12.93;8.50;;;;;;;;;;4957917;28;20031;-80
2022/07/25 06:16:22;;;;;;;19.77;8.85;;;;;;;;;;4973310;28;20505;-80
2022/07/25 06:18:47;;;;;;;15.55;8.88;;;;;;;;;;4974809;28;20030;-82
2022/07/25 06:21:14;;;;;;;18.40;8.65;;;;;;;;;;4969578;28;20056;-81
2022/07/25 06:23:40;;;;;;;19.17;9.10;;;;;;;;;;4971040;28;20067;-81
2022/07/25 06:26:09;;;;;;;15.60;7.68;;;;;;;;;;4970143;28;20023;-79
2022/07/25 06:28:37;;;;;;;17.05;7.78;;;;;;;;;;4964665;28;20053;-81
2022/07/25 06:31:02;;;;;;;17.40;9.85;;;;;;;;;;4967409;28;20098;-78
2022/07/25 06:33:28;;;;;;;22.20;9.10;;;;;;;;;;4966358;28;20244;-80
2022/07/25 06:35:54;;;;;;;28.48;9.82;;;;;;;;;;4973203;28;20026;-81
2022/07/25 06:38:19;;;;;;;12.88;9.00;;;;;;;;;;4968388;28;20090;-82
2022/07/25 06:40:45;;;;;;;21.55;10.43;;;;;;;;;;4964173;28;20058;-81
2022/07/25 06:43:12;;;;;;;22.85;9.77;;;;;;;;;;4970011;28;20025;-81
2022/07/25 06:45:37;;;;;;;17.98;8.73;;;;;;;;;;4970646;28;20015;-81
2022/07/25 06:48:03;;;;;;;21.58;9.80;;;;;;;;;;4973973;28;20072;-81
2022/07/25 06:50:30;;;;;;;17.08;10.05;;;;;;;;;;4971015;28;20019;-80
2022/07/25 06:52:57;;;;;;;16.08;9.82;;;;;;;;;;4965574;28;20043;-79
2022/07/25 06:55:22;;;;;;;14.32;8.48;;;;;;;;;;4959263;28;20032;-80
2022/07/25 06:57:48;;;;;;;20.25;11.35;;;;;;;;;;4967867;28;20030;-79
2022/07/25 07:00:13;;;;;;;18.90;9.52;;;;;;;;;;4962124;28;20141;-79
2022/07/25 07:02:51;;;;;;;15.15;9.18;;;;;;;;;;4970688;28;20023;-80
2022/07/25 07:05:17;;;;;;;13.80;8.93;;;;;;;;;;4960629;28;20069;-80
2022/07/25 07:07:43;;;;;;;13.00;8.70;;;;;;;;;;4987224;28;20452;-81
2022/07/25 07:10:09;;;;;;;12.95;8.98;;;;;;;;;;4960181;28;20030;-80
2022/07/25 07:12:35;;;;;;;20.33;8.90;;;;;;;;;;4966436;28;20027;-80
2022/07/25 07:15:00;;;;;;;12.77;8.80;;;;;;;;;;4967186;28;20035;-80
2022/07/25 07:17:26;;;;;;;17.02;8.95;;;;;;;;;;4981479;28;20023;-78
2022/07/25 07:19:52;;;;;;;14.30;8.60;;;;;;;;;;4971079;28;20034;-78
2022/07/25 07:22:19;;;;;;;13.88;8.93;;;;;;;;;;4968385;28;20041;-79
2022/07/25 07:24:45;;;;;;;12.05;8.90;;;;;;;;;;4969774;28;20038;-80
2022/07/25 07:27:11;;;;;;;11.40;7.65;;;;;;;;;;4958341;28;20495;-80
2022/07/25 07:29:37;;;;;;;16.33;7.78;;;;;;;;;;4960974;28;20030;-80
2022/07/25 07:32:03;;;;;;;9.63;7.40;;;;;;;;;;4966541;28;20037;-80
2022/07/25 07:34:32;;;;;;;13.52;8.13;;;;;;;;;;4964512;28;20038;-79
2022/07/25 07:37:01;;;;;;;13.98;7.03;;;;;;;;;;4970710;28;20043;-81
2022/07/25 07:39:32;;;;;;;15.75;8.10;;;;;;;;;;4964688;28;20022;-80
2022/07/25 07:42:10;;;;;;;10.23;7.75;;;;;;;;;;4969530;28;20034;-80
2022/07/25 07:44:43;;;;;;;10.40;7.40;;;;;;;;;;4968402;28;20427;-78
2022/07/25 07:47:12;;;;;;;12.10;6.90;;;;;;;;;;4969235;28;20110;-81
2022/07/25 07:49:48;;;;;;;8.95;7.28;;;;;;;;;;4968200;28;20486;-79
2022/07/25 07:52:13;;;;;;;10.35;6.85;;;;;;;;;;4967773;28;20565;-80
2022/07/25 07:57:23;;;;;;;10.40;7.18;;;;;;;;;;4966708;28;20043;-79
2022/07/25 07:59:48;;;;;;;7.25;6.15;;;;;;;;;;4959801;28;20238;-80
2022/07/25 08:02:15;;;;;;;22.00;6.88;;;;;;;;;;4957271;28;20395;-80
2022/07/25 08:04:40;;;;;;;9.57;6.65;;;;;;;;;;4966395;28;20034;-80
2022/07/25 08:07:06;;;;;;;10.52;7.20;;;;;;;;;;4964679;28;20027;-83
2022/07/25 08:09:31;;;;;;;9.07;7.22;;;;;;;;;;4969544;28;20037;-82
2022/07/25 08:11:57;;;;;;;10.15;6.97;;;;;;;;;;4967621;28;20113;-79
2022/07/25 08:14:34;;;;;;;12.07;7.03;;;;;;;;;;4980370;28;20217;-80
2022/07/25 08:17:00;;;;;;;10.73;6.72;;;;;;;;;;4980980;28;20039;-80
2022/07/25 08:19:25;;;;;;;11.60;6.85;;;;;;;;;;4965944;28;20041;-80
2022/07/25 08:21:51;;;;;;;9.95;6.50;;;;;;;;;;4966959;28;20479;-80
2022/07/25 08:24:16;;;;;;;9.23;6.50;;;;;;;;;;4970306;28;20031;-80
2022/07/25 08:26:42;;;;;;;12.35;6.88;;;;;;;;;;4984729;28;20023;-80
2022/07/25 08:29:07;;;;;;;9.02;5.85;;;;;;;;;;4987279;28;20443;-79
2022/07/25 08:31:33;;;;;;;9.48;6.32;;;;;;;;;;4979267;28;20042;-82
2022/07/25 08:33:58;;;;;;;10.48;6.70;;;;;;;;;;4979712;28;20069;-80
2022/07/25 08:36:24;;;;;;;11.70;6.93;;;;;;;;;;4968971;28;20132;-83
2022/07/25 08:38:49;;;;;;;9.40;5.78;;;;;;;;;;4974953;28;20489;-80
2022/07/25 08:41:15;;;;;;;12.73;6.88;;;;;;;;;;4966767;28;20041;-80
2022/07/25 08:43:42;;;;;;;8.73;6.07;;;;;;;;;;4969659;28;20518;-81
2022/07/25 08:46:08;;;;;;;14.90;6.53;;;;;;;;;;4995279;28;20030;-79
2022/07/25 08:48:34;;;;;;;9.80;6.03;;;;;;;;;;4977544;28;20367;-83
2022/07/25 08:51:01;;;;;;;10.18;6.40;;;;;;;;;;4971724;28;20126;-83
2022/07/25 08:53:29;;;;;;;6.07;5.40;;;;;;;;;;4969252;28;20070;-82
2022/07/25 08:55:54;;;;;;;7.93;6.00;;;;;;;;;;4971178;28;20023;-80
2022/07/25 08:58:20;;;;;;;7.50;5.90;;;;;;;;;;4974000;28;20042;-79
2022/07/25 09:00:46;;;;;;;13.20;6.97;;;;;;;;;;4971598;28;20035;-82
2022/07/25 09:03:12;;;;;;;8.32;5.85;;;;;;;;;;4964004;28;20026;-78
2022/07/25 09:05:38;;;;;;;10.70;6.32;;;;;;;;;;4986613;28;20031;-81
2022/07/25 09:08:13;;;;;;;13.77;7.15;;;;;;;;;;4966912;28;20070;-82
2022/07/25 09:10:44;;;;;;;10.00;6.38;;;;;;;;;;4968048;28;20031;-78
2022/07/25 09:13:17;;;;;;;10.50;6.25;;;;;;;;;;4971236;28;20122;-82
2022/07/25 09:15:52;;;;;;;10.57;7.00;;;;;;;;;;4970046;28;20303;-81
2022/07/25 09:18:22;;;;;;;12.25;7.25;;;;;;;;;;4969354;28;20030;-80
2022/07/25 09:20:53;;;;;;;9.18;6.05;;;;;;;;;;4967118;28;20482;-77
2022/07/25 09:23:32;;;;;;;10.05;6.50;;;;;;;;;;4965565;28;20429;-79
2022/07/25 09:26:03;;;;;;;8.38;6.43;;;;;;;;;;4969202;28;20154;-82
2022/07/25 09:28:29;;;;;;;9.27;5.95;;;;;;;;;;4973164;28;20450;-81
2022/07/25 09:30:57;;;;;;;7.72;5.78;;;;;;;;;;4955705;28;20089;-81
2022/07/25 09:33:23;;;;;;;8.35;6.25;;;;;;;;;;4967091;28;20545;-81
2022/07/25 09:35:50;;;;;;;13.90;8.38;;;;;;;;;;4967287;28;20037;-81
2022/07/25 09:38:18;;;;;;;12.25;6.57;;;;;;;;;;4968671;28;20376;-82
2022/07/25 09:40:58;;;;;;;9.30;6.20;;;;;;;;;;4965544;28;20079;-77
2022/07/25 09:43:41;;;;;;;7.80;6.03;;;;;;;;;;4977277;28;20031;-83
2022/07/25 09:46:07;;;;;;;9.43;6.50;;;;;;;;;;4975556;28;20039;-82
2022/07/25 09:48:35;;;;;;;11.05;6.68;;;;;;;;;;4970335;28;20043;-83
2022/07/25 09:51:01;;;;;;;8.88;6.25;;;;;;;;;;4954367;28;20543;-83
2022/07/25 09:53:28;;;;;;;22.42;11.20;;;;;;;;;;4973569;28;20148;-84
2022/07/25 09:55:55;;;;;;;8.43;6.32;;;;;;;;;;4968415;28;20057;-84
2022/07/25 09:58:23;;;;;;;10.90;6.68;;;;;;;;;;4975426;28;20364;-79
2022/07/25 10:00:53;;;;;;;7.82;6.15;;;;;;;;;;4974282;28;20042;-85
2022/07/25 10:03:37;;;;;;;8.32;6.50;;;;;;;;;;4976839;28;20042;-80
2022/07/25 10:06:44;;;;;;;10.07;6.72;;;;;;;;;;4974390;28;20043;-83
2022/07/25 10:09:14;;;;;;;11.15;7.75;;;;;;;;;;4975901;28;20062;-83
2022/07/25 10:11:39;;;;;;;15.75;6.00;;;;;;;;;;4968234;28;20063;-81
2022/07/25 10:14:11;;;;;;;7.03;6.10;;;;;;;;;;4975191;28;20610;-82
2022/07/25 10:16:45;;;;;;;10.25;6.45;;;;;;;;;;4975218;28;20086;-81
2022/07/25 10:19:11;;;;;;;12.65;6.68;;;;;;;;;;4978860;28;20078;-84
2022/07/25 10:21:36;;;;;;;8.10;5.97;;;;;;;;;;4973013;28;20595;-83
2022/07/25 10:24:07;;;;;;;7.85;5.80;;;;;;;;;;4972104;28;20335;-82
2022/07/25 10:26:35;;;;;;;9.95;6.15;;;;;;;;;;4977424;28;20033;-83
2022/07/25 10:29:10;;;;;;;13.07;6.25;;;;;;;;;;4973397;28;20094;-82
2022/07/25 10:31:40;;;;;;;7.93;6.22;;;;;;;;;;4968576;28;20180;-82
2022/07/25 10:34:08;;;;;;;8.07;5.63;;;;;;;;;;4969904;28;20036;-84
2022/07/25 10:36:47;;;;;;;11.63;6.97;;;;;;;;;;4972723;28;20043;-84
2022/07/25 10:39:18;;;;;;;10.80;6.75;;;;;;;;;;4972590;28;20736;-80
2022/07/25 10:41:52;;;;;;;11.95;6.40;;;;;;;;;;4982126;28;20046;-82
2022/07/25 10:44:18;;;;;;;10.05;6.07;;;;;;;;;;4984109;28;20030;-81
2022/07/25 10:46:46;;;;;;;10.48;6.05;;;;;;;;;;4981694;28;20031;-83
2022/07/25 10:49:21;;;;;;;8.45;6.28;;;;;;;;;;4970869;28;20438;-83
2022/07/25 10:51:58;;;;;;;8.07;5.82;;;;;;;;;;4964663;28;20042;-82
2022/07/25 10:54:24;;;;;;;9.07;6.75;;;;;;;;;;4968709;28;20045;-83
2022/07/25 10:56:57;;;;;;;11.23;6.50;;;;;;;;;;4972432;28;20041;-83
2022/07/25 10:59:26;;;;;;;9.48;6.35;;;;;;;;;;4984193;28;20086;-82
2022/07/25 11:01:52;;;;;;;12.07;5.63;;;;;;;;;;4970954;28;20050;-84
2022/07/25 11:04:19;;;;;;;6.82;6.15;;;;;;;;;;4972932;28;20763;-83
2022/07/25 11:06:44;;;;;;;8.43;6.32;;;;;;;;;;4971567;28;20037;-85
2022/07/25 11:09:36;;;;;;;7.07;5.65;;;;;;;;;;4973789;28;20114;-84
2022/07/25 11:12:02;;;;;;;6.57;5.40;;;;;;;;;;4967649;28;20153;-80
2022/07/25 11:14:34;;;;;;;11.75;6.32;;;;;;;;;;4971258;28;20031;-84
2022/07/25 11:17:21;;;;;;;9.40;5.82;;;;;;;;;;4971788;28;20026;-83
2022/07/25 11:19:56;;;;;;;7.25;5.85;;;;;;;;;;4971664;28;20038;-83
2022/07/25 11:22:23;;;;;;;9.18;6.10;;;;;;;;;;4966260;28;20129;-84
2022/07/25 11:24:50;;;;;;;10.25;5.80;;;;;;;;;;4968188;28;20038;-82
2022/07/25 11:27:28;;;;;;;9.50;5.85;;;;;;;;;;4989185;28;20038;-86
2022/07/25 11:30:15;;;;;;;12.80;6.10;;;;;;;;;;4973632;28;20065;-84
2022/07/25 11:32:53;;;;;;;7.30;5.95;;;;;;;;;;4970106;28;20055;-83
2022/07/25 11:35:29;;;;;;;5.88;5.03;;;;;;;;;;4949093;28;20121;-81
2022/07/25 11:38:00;;;;;;;17.25;6.32;;;;;;;;;;4963970;28;20039;-83
2022/07/25 11:40:27;;;;;;;10.85;5.63;;;;;;;;;;4965743;28;20030;-82
2022/07/25 11:43:00;;;;;;;7.65;5.63;;;;;;;;;;4960606;28;20274;-79
2022/07/25 11:45:28;;;;;;;9.60;5.03;;;;;;;;;;4959687;28;20049;-82
2022/07/25 11:48:02;;;;;;;6.90;5.47;;;;;;;;;;4980663;28;20101;-81
2022/07/25 11:50:31;;;;;;;6.60;5.60;;;;;;;;;;4978707;28;20039;-80
2022/07/25 11:53:01;;;;;;;6.55;5.10;;;;;;;;;;4960880;28;20043;-81
2022/07/25 11:55:28;;;;;;;7.80;5.75;;;;;;;;;;4964135;28;20115;-80
2022/07/25 11:57:59;;;;;;;13.32;5.47;;;;;;;;;;4966034;28;20039;-80
2022/07/25 12:00:24;;;;;;;9.95;6.38;;;;;;;;;;4965183;28;20031;-82
2022/07/25 12:02:50;;;;;;;7.30;4.88;;;;;;;;;;4968878;28;20039;-79
2022/07/25 12:12:21;;;;;;;5.93;5.10;;;;;;;;;;4949291;28;20038;-86
2022/07/25 12:14:46;;;;;;;8.20;6.10;;;;;;;;;;4957629;28;20705;-80
2022/07/25 12:17:12;;;;;;;13.13;5.90;;;;;;;;;;4986575;28;20027;-83
2022/07/25 12:19:40;;;;;;;6.05;5.20;;;;;;;;;;4960063;28;20030;-80
2022/07/25 12:22:08;;;;;;;9.75;5.03;;;;;;;;;;4960841;28;20034;-79
2022/07/25 12:24:35;;;;;;;13.52;5.43;;;;;;;;;;4963963;28;20062;-81
2022/07/25 12:27:01;;;;;;;7.45;5.88;;;;;;;;;;4977125;28;20039;-82
2022/07/25 12:29:27;;;;;;;6.50;4.97;;;;;;;;;;4964149;28;20039;-83
2022/07/25 12:31:54;;;;;;;8.95;5.50;;;;;;;;;;4967610;28;20035;-81
2022/07/25 12:34:24;;;;;;;6.30;5.55;;;;;;;;;;4970573;28;20836;-81
2022/07/25 12:36:51;;;;;;;;;;;;;;;;;;4969891;28;21286;-81
2022/07/25 12:39:17;;;;;;;7.70;5.60;;;;;;;;;;4970340;28;19914;-81
2022/07/25 12:41:43;;;;;;;6.03;5.10;;;;;;;;;;4964466;28;20053;-81
2022/07/25 12:44:09;;;;;;;7.47;4.93;;;;;;;;;;4971922;28;20026;-79
2022/07/25 12:46:35;;;;;;;6.35;4.97;;;;;;;;;;4969390;28;20043;-81
2022/07/25 12:49:01;;;;;;;8.15;5.63;;;;;;;;;;4967610;28;20046;-78
2022/07/25 12:51:27;;;;;;;6.55;5.35;;;;;;;;;;4969359;28;20026;-80
2022/07/25 12:53:52;;;;;;;7.00;4.82;;;;;;;;;;4971163;28;20486;-81
2022/07/25 12:56:18;;;;;;;5.22;4.68;;;;;;;;;;4966477;28;20031;-82
2022/07/25 12:58:43;;;;;;;6.88;4.70;;;;;;;;;;4964722;28;20019;-80
2022/07/25 13:01:09;;;;;;;9.32;6.93;;;;;;;;;;4967171;28;20034;-80
2022/07/25 13:04:08;;;;;;;8.57;5.05;;;;;;;;;;4971258;28;20035;-82
2022/07/25 13:06:34;;;;;;;6.40;5.70;;;;;;;;;;4968196;28;20022;-81
2022/07/25 13:09:04;;;;;;;8.65;4.78;;;;;;;;;;4968303;28;20775;-81
2022/07/25 13:11:30;;;;;;;7.63;4.93;;;;;;;;;;4965104;28;20515;-80
2022/07/25 13:13:56;;;;;;;5.43;4.93;;;;;;;;;;4967571;28;20035;-81
2022/07/25 13:16:22;;;;;;;9.55;5.55;;;;;;;;;;4989354;28;20440;-81
2022/07/25 13:18:57;;;;;;;6.53;5.30;;;;;;;;;;4979417;28;20130;-81
2022/07/25 13:21:23;;;;;;;5.28;4.78;;;;;;;;;;4977788;28;20058;-80
2022/07/25 13:23:49;;;;;;;7.32;5.10;;;;;;;;;;4973325;28;20031;-81
2022/07/25 13:26:15;;;;;;;9.38;5.15;;;;;;;;;;4975824;28;20035;-80
2022/07/25 13:28:44;;;;;;;5.60;5.00;;;;;;;;;;4971520;28;20494;-81
2022/07/25 13:31:10;;;;;;;4.85;4.45;;;;;;;;;;4972662;28;20078;-80
2022/07/25 13:33:35;;;;;;;10.93;4.90;;;;;;;;;;4975639;28;20463;-79
2022/07/25 13:36:01;;;;;;;6.22;5.32;;;;;;;;;;4972729;28;20186;-81
2022/07/25 13:38:27;;;;;;;8.18;4.88;;;;;;;;;;4970827;28;20475;-81
2022/07/25 13:40:53;;;;;;;5.57;4.63;;;;;;;;;;4971202;28;20086;-80
2022/07/25 13:43:18;;;;;;;7.03;5.10;;;;;;;;;;4985731;28;20452;-82
2022/07/25 13:45:46;;;;;;;5.85;5.07;;;;;;;;;;4973023;28;20050;-79
2022/07/25 13:48:12;;;;;;;5.55;5.05;;;;;;;;;;4972170;28;20023;-80
2022/07/25 13:50:37;;;;;;;6.22;4.72;;;;;;;;;;4967288;28;20045;-81
2022/07/25 13:53:06;;;;;;;6.50;5.00;;;;;;;;;;4971052;28;20054;-82
2022/07/25 13:55:34;;;;;;;7.15;4.80;;;;;;;;;;4973281;28;20118;-81
2022/07/25 13:58:00;;;;;;;6.63;4.75;;;;;;;;;;4975077;28;20043;-82
2022/07/25 14:00:26;;;;;;;6.68;4.80;;;;;;;;;;4973775;28;20058;-82
2022/07/25 14:02:52;;;;;;;6.13;4.55;;;;;;;;;;4985496;28;20145;-81
2022/07/25 14:05:19;;;;;;;6.43;5.05;;;;;;;;;;4975566;28;20440;-83
2022/07/25 14:07:45;;;;;;;4.47;4.00;;;;;;;;;;4964830;28;20031;-82
2022/07/25 14:10:11;;;;;;;5.22;4.00;;;;;;;;;;4972890;28;20038;-83
2022/07/25 14:12:38;;;;;;;8.32;4.65;;;;;;;;;;4974091;28;20023;-81
2022/07/25 14:15:05;;;;;;;9.75;4.32;;;;;;;;;;4968931;28;20109;-82
2022/07/25 14:17:32;;;;;;;5.90;4.60;;;;;;;;;;4971379;28;20053;-82
2022/07/25 14:19:58;;;;;;;5.72;4.32;;;;;;;;;;4971466;28;20023;-83
2022/07/25 14:22:24;;;;;;;5.65;4.00;;;;;;;;;;4987756;28;20034;-82
2022/07/25 14:24:50;;;;;;;8.52;4.18;;;;;;;;;;4976334;28;20138;-82
2022/07/25 14:27:17;;;;;;;8.73;4.70;;;;;;;;;;4971493;28;20029;-82
2022/07/25 14:29:42;;;;;;;4.32;3.92;;;;;;;;;;4969152;28;20055;-81
2022/07/25 14:32:08;;;;;;;4.40;4.00;;;;;;;;;;4961821;28;20035;-82
2022/07/25 14:34:34;;;;;;;5.13;4.05;;;;;;;;;;4976768;28;20037;-82
2022/07/25 14:37:01;;;;;;;8.45;4.50;;;;;;;;;;4978122;28;20073;-83
2022/07/25 14:39:27;;;;;;;5.43;4.35;;;;;;;;;;4979963;28;20023;-83
2022/07/25 14:41:53;;;;;;;4.38;4.07;;;;;;;;;;4994391;28;20066;-82